Peach Orchard, Missouri
Current Conditions -  °F | °C
As of 1:53 PM on Sunday 23 Nov 2014 (Local Time) from KPOF Reporting Station
Light Rain Light Rain  
Wind Chill: 14°   Ceiling: 700
Heat Index: 14°   Visibility: 5mi
Dew Point: 13°   Wind: 8mph
Humidity: 93%   Direction: 120°ESE
Pressure: 29.38"   Gusts: NA
Location:  36.4472°N, 89.9037°W
Report Text: KPOF 231953Z AUTO 12007KT 5SM -RA BR BKN007 OVC011 14/13 A2938 RMK AO2 CIG 005V009 SLP950 P0005 T01390128
Loading
Personal Weather Stations






























Interactive Weather Map New forecast layout! Learn more

10-Day Weather Forecast

Advertisements
Track Severe Weather on mobile